Time;durP1;ratioP1;P1;durP2;ratioP2;P2;SDS_P1;SDS_P2;PMS_P1;PMS_P2;Temp;Humidity;BMP_temperature;BMP_pressure;BME280_temperature;BME280_humidity;BME280_pressure;Samples;Min_cycle;Max_cycle;Signal;HPM_P1;HPM_P2
2022/07/22 00:00:39;;;;;;;13.30;12.02;;;19.20;99.90;;;;;;5031735;28;20039;-74
2022/07/22 00:03:10;;;;;;;13.30;12.10;;;19.20;99.90;;;;;;5016545;28;20635;-74
2022/07/22 00:05:37;;;;;;;13.02;11.75;;;19.10;99.90;;;;;;5016585;28;20053;-75
2022/07/22 00:08:09;;;;;;;12.93;11.63;;;19.10;99.90;;;;;;5034301;28;20055;-74
2022/07/22 00:10:36;;;;;;;13.57;12.23;;;19.00;99.90;;;;;;5015269;28;20052;-74
2022/07/22 00:13:08;;;;;;;13.60;12.32;;;19.00;99.90;;;;;;5034116;28;20049;-74
2022/07/22 00:15:39;;;;;;;13.48;12.13;;;19.00;99.90;;;;;;5015505;28;20037;-74
2022/07/22 00:18:06;;;;;;;12.70;11.50;;;18.90;99.90;;;;;;5033643;28;20393;-74
2022/07/22 00:20:38;;;;;;;13.45;12.05;;;19.00;99.90;;;;;;4997427;28;20040;-74
2022/07/22 00:23:04;;;;;;;12.23;11.07;;;19.00;99.90;;;;;;5014440;28;20049;-75
2022/07/22 00:25:37;;;;;;;13.20;12.00;;;19.00;99.90;;;;;;5015514;28;20041;-74
2022/07/22 00:28:08;;;;;;;12.65;11.45;;;18.90;99.90;;;;;;5015988;28;20603;-74
2022/07/22 00:30:40;;;;;;;12.48;11.38;;;18.90;99.90;;;;;;5030641;28;20041;-74
2022/07/22 00:33:12;;;;;;;13.35;12.07;;;18.80;99.90;;;;;;5030983;28;20716;-74
2022/07/22 00:35:44;;;;;;;13.98;12.57;;;18.80;99.90;;;;;;5011814;28;20046;-74
2022/07/22 00:38:15;;;;;;;13.77;11.98;;;18.70;99.90;;;;;;5016162;28;20526;-73
2022/07/22 00:40:47;;;;;;;13.60;12.38;;;18.70;99.90;;;;;;5033126;28;20091;-75
2022/07/22 00:43:19;;;;;;;13.25;11.90;;;18.70;99.90;;;;;;5013232;28;20042;-73
2022/07/22 00:45:51;;;;;;;13.32;12.05;;;18.70;99.90;;;;;;5020044;28;20060;-74
2022/07/22 00:48:22;;;;;;;13.48;12.18;;;18.70;99.90;;;;;;5031452;28;20183;-75
2022/07/22 00:50:54;;;;;;;13.77;12.48;;;18.70;99.90;;;;;;5011987;28;20052;-74
2022/07/22 00:53:26;;;;;;;13.30;11.98;;;18.70;99.90;;;;;;5010620;28;20037;-74
2022/07/22 00:55:58;;;;;;;13.85;12.50;;;18.70;99.90;;;;;;5015822;28;20586;-74
2022/07/22 00:58:30;;;;;;;13.73;12.45;;;18.70;99.90;;;;;;5016846;28;20145;-74
2022/07/22 01:01:02;;;;;;;14.23;12.88;;;18.60;99.90;;;;;;5014345;28;20041;-73
2022/07/22 01:03:35;;;;;;;12.75;11.52;;;18.50;99.90;;;;;;5013084;28;20496;-73
2022/07/22 01:06:07;;;;;;;12.52;11.25;;;18.50;99.90;;;;;;4999648;28;20077;-73
2022/07/22 01:08:40;;;;;;;14.33;12.57;;;18.50;99.90;;;;;;5028731;28;20453;-73
2022/07/22 01:11:17;;;;;;;12.43;11.32;;;18.50;99.90;;;;;;5009597;28;20053;-73
2022/07/22 01:13:50;;;;;;;13.23;11.93;;;18.40;99.90;;;;;;5031974;28;20060;-73
2022/07/22 01:16:22;;;;;;;13.38;12.07;;;18.40;99.90;;;;;;5014856;28;20049;-73
2022/07/22 01:18:54;;;;;;;12.43;11.25;;;18.30;99.90;;;;;;5015529;28;20046;-73
2022/07/22 01:21:26;;;;;;;13.73;12.40;;;18.30;99.90;;;;;;5014090;28;20052;-73
2022/07/22 01:23:59;;;;;;;12.57;11.43;;;18.30;99.90;;;;;;5025743;28;20037;-73
2022/07/22 01:26:33;;;;;;;14.55;13.18;;;18.30;99.90;;;;;;5014949;28;20600;-73
2022/07/22 01:29:04;;;;;;;12.98;11.77;;;18.20;99.90;;;;;;5010904;28;20073;-73
2022/07/22 01:31:36;;;;;;;13.40;11.90;;;18.20;99.90;;;;;;5013613;28;20136;-73
2022/07/22 01:34:08;;;;;;;12.82;11.68;;;18.10;99.90;;;;;;5030398;28;20049;-74
2022/07/22 01:36:40;;;;;;;13.50;12.18;;;18.00;99.90;;;;;;5029756;28;20041;-73
2022/07/22 01:39:12;;;;;;;13.48;12.15;;;18.00;99.90;;;;;;5030680;28;20045;-73
2022/07/22 01:41:44;;;;;;;13.52;12.23;;;18.00;99.90;;;;;;5019206;28;20529;-73
2022/07/22 01:44:16;;;;;;;13.73;12.40;;;18.00;99.90;;;;;;5013699;28;20033;-73
2022/07/22 01:46:49;;;;;;;13.55;12.20;;;18.00;99.90;;;;;;5014877;28;20481;-73
2022/07/22 01:49:22;;;;;;;13.57;12.27;;;18.00;99.90;;;;;;5006240;28;20037;-73
2022/07/22 01:51:54;;;;;;;13.30;12.00;;;18.00;99.90;;;;;;5020274;28;20057;-73
2022/07/22 01:54:26;;;;;;;13.50;12.20;;;18.00;99.90;;;;;;5029774;28;20401;-73
2022/07/22 01:56:58;;;;;;;13.10;11.80;;;18.00;99.90;;;;;;5014611;28;20144;-74
2022/07/22 01:59:29;;;;;;;13.25;11.90;;;17.90;99.90;;;;;;5011030;28;20072;-72
2022/07/22 02:02:01;;;;;;;13.52;12.23;;;17.90;99.90;;;;;;5011979;28;20065;-73
2022/07/22 02:04:33;;;;;;;13.32;12.13;;;17.90;99.90;;;;;;5029772;28;20390;-73
2022/07/22 02:07:05;;;;;;;13.02;11.73;;;17.90;99.90;;;;;;5014221;28;20123;-73
2022/07/22 02:09:37;;;;;;;14.15;12.85;;;17.80;99.90;;;;;;4997809;28;20567;-73
2022/07/22 02:12:08;;;;;;;13.65;12.40;;;17.80;99.90;;;;;;5029861;28;20049;-73
2022/07/22 02:14:45;;;;;;;13.45;12.23;;;17.80;99.90;;;;;;5026379;28;20060;-73
2022/07/22 02:17:17;;;;;;;13.48;12.18;;;17.80;99.90;;;;;;5013142;28;20103;-74
2022/07/22 02:19:49;;;;;;;13.88;12.55;;;17.80;99.90;;;;;;5018292;28;20103;-75
2022/07/22 02:22:21;;;;;;;13.13;11.93;;;17.80;99.90;;;;;;4997687;28;20045;-73
2022/07/22 02:24:52;;;;;;;13.48;11.93;;;17.80;99.90;;;;;;5021819;28;20505;-74
2022/07/22 02:27:24;;;;;;;14.00;12.70;;;17.80;99.90;;;;;;5014458;28;20515;-73
2022/07/22 02:29:56;;;;;;;13.00;11.80;;;17.70;99.90;;;;;;5024550;28;20073;-73
2022/07/22 02:32:28;;;;;;;13.90;12.55;;;17.70;99.90;;;;;;5012805;28;20050;-74
2022/07/22 02:35:00;;;;;;;13.50;12.18;;;17.70;99.90;;;;;;5022052;28;20568;-75
2022/07/22 02:37:33;;;;;;;13.18;11.88;;;17.70;99.90;;;;;;5019923;28;20056;-74
2022/07/22 02:40:07;;;;;;;14.50;13.10;;;17.70;99.90;;;;;;5012605;28;20129;-73
2022/07/22 02:42:39;;;;;;;13.77;12.48;;;17.70;99.90;;;;;;5023074;28;20092;-74
2022/07/22 02:45:11;;;;;;;13.88;12.48;;;17.60;99.90;;;;;;5027932;28;20046;-73
2022/07/22 02:47:52;;;;;;;15.27;13.18;;;17.60;99.90;;;;;;5011313;28;20042;-73
2022/07/22 02:50:25;;;;;;;14.48;13.07;;;17.50;99.90;;;;;;5022903;28;20509;-74
2022/07/22 02:52:56;;;;;;;14.60;13.02;;;17.50;99.90;;;;;;5010568;28;20056;-73
2022/07/22 02:55:33;;;;;;;13.50;12.10;;;17.50;99.90;;;;;;5011163;28;20045;-73
2022/07/22 02:58:06;;;;;;;14.05;12.75;;;17.50;99.90;;;;;;5011403;28;20140;-73
2022/07/22 03:00:41;;;;;;;14.60;13.18;;;17.50;99.90;;;;;;5011913;28;20124;-74
2022/07/22 03:03:13;;;;;;;13.73;12.35;;;17.40;99.90;;;;;;5019598;22;20033;-91
2022/07/22 03:05:40;;;;;;;12.70;11.38;;;17.30;99.90;;;;;;5020415;28;20050;-88
2022/07/22 03:08:23;;;;;;;14.02;12.52;;;17.30;99.90;;;;;;5020790;28;20049;-89
2022/07/22 03:10:49;;;;;;;14.88;12.23;;;17.20;99.90;;;;;;5025186;28;20041;-90
2022/07/22 03:13:17;;;;;;;13.30;11.85;;;17.20;99.90;;;;;;5029265;28;20041;-90
2022/07/22 03:15:43;;;;;;;14.02;12.75;;;17.20;99.90;;;;;;5044308;23;20056;-72
2022/07/22 03:18:16;;;;;;;13.93;12.52;;;17.10;99.90;;;;;;4998003;28;20042;-73
2022/07/22 03:20:48;;;;;;;14.50;13.10;;;17.10;99.90;;;;;;5026734;28;20044;-73
2022/07/22 03:23:20;;;;;;;13.25;11.95;;;17.10;99.90;;;;;;5010867;28;20049;-73
2022/07/22 03:25:52;;;;;;;13.75;12.35;;;17.10;99.90;;;;;;5012071;28;20077;-71
2022/07/22 03:28:24;;;;;;;13.10;11.70;;;17.10;99.90;;;;;;5013891;28;20049;-72
2022/07/22 03:30:56;;;;;;;14.48;12.18;;;17.10;99.90;;;;;;5005688;28;20038;-72
2022/07/22 03:33:27;;;;;;;13.82;12.43;;;17.00;99.90;;;;;;5011074;28;20104;-72
2022/07/22 03:36:00;;;;;;;13.70;12.18;;;17.00;99.90;;;;;;5018686;28;20045;-72
2022/07/22 03:38:34;;;;;;;13.27;11.95;;;17.00;99.90;;;;;;5019426;28;20501;-72
2022/07/22 03:41:06;;;;;;;13.93;12.45;;;17.00;99.90;;;;;;5013080;28;20057;-72
2022/07/22 03:43:39;;;;;;;14.15;12.50;;;16.90;99.90;;;;;;5012562;28;20052;-72
2022/07/22 03:46:11;;;;;;;13.73;12.32;;;16.90;99.90;;;;;;5013808;28;20382;-72
2022/07/22 03:48:43;;;;;;;14.60;12.52;;;16.90;99.90;;;;;;5013606;28;20144;-72
2022/07/22 03:51:15;;;;;;;15.20;12.07;;;16.90;99.90;;;;;;5013640;28;20054;-72
2022/07/22 03:53:46;;;;;;;13.30;12.00;;;16.90;99.90;;;;;;5006723;28;20524;-73
2022/07/22 03:56:18;;;;;;;13.85;12.65;;;17.00;99.90;;;;;;5022248;28;20045;-72
2022/07/22 03:58:50;;;;;;;14.73;13.23;;;17.00;99.90;;;;;;5016748;28;20137;-71
2022/07/22 04:01:22;;;;;;;15.48;12.85;;;17.00;99.90;;;;;;5013808;28;20046;-73
2022/07/22 04:03:53;;;;;;;14.88;13.13;;;17.00;99.90;;;;;;5022274;28;20486;-72
2022/07/22 04:06:31;;;;;;;13.52;12.13;;;17.00;99.90;;;;;;5018784;28;20414;-73
2022/07/22 04:09:10;;;;;;;14.00;12.60;;;17.00;99.90;;;;;;5027973;28;20049;-72
2022/07/22 04:11:42;;;;;;;15.23;13.07;;;17.00;99.90;;;;;;5013275;28;20132;-72
2022/07/22 04:14:14;;;;;;;14.02;12.63;;;16.90;99.90;;;;;;5011319;28;20136;-72
2022/07/22 04:16:46;;;;;;;14.60;12.95;;;16.80;99.90;;;;;;5028939;28;20405;-72
2022/07/22 04:19:18;;;;;;;17.10;11.90;;;16.90;99.90;;;;;;5021289;28;20045;-71
2022/07/22 04:21:52;;;;;;;13.75;12.45;;;16.90;99.90;;;;;;5016967;28;20037;-72
2022/07/22 04:24:21;;;;;;;14.02;11.82;;;16.90;99.90;;;;;;5011770;28;20464;-72
2022/07/22 04:26:48;;;;;;;12.68;11.48;;;16.90;99.90;;;;;;5024604;28;20072;-71
2022/07/22 04:29:21;;;;;;;;;;;17.00;99.90;;;;;;5023378;28;20038;-72
2022/07/22 04:31:53;;;;;;;13.35;12.05;;;17.00;99.90;;;;;;5027165;28;19929;-71
2022/07/22 04:34:24;;;;;;;15.50;12.85;;;16.90;99.90;;;;;;5008711;28;20056;-71
2022/07/22 04:36:58;;;;;;;13.00;11.63;;;17.00;99.90;;;;;;4996825;28;20402;-71
2022/07/22 04:39:34;;;;;;;13.23;11.90;;;17.00;99.90;;;;;;5023422;28;20712;-73
2022/07/22 04:42:06;;;;;;;14.57;13.07;;;17.00;99.90;;;;;;5026421;28;20042;-72
2022/07/22 04:44:39;;;;;;;14.10;12.70;;;17.00;99.90;;;;;;5007878;28;20038;-72
2022/07/22 04:47:11;;;;;;;13.77;12.15;;;17.00;99.90;;;;;;5023885;28;20052;-72
2022/07/22 04:49:45;;;;;;;13.80;12.38;;;17.00;99.90;;;;;;5015425;28;20068;-72
2022/07/22 04:52:17;;;;;;;14.57;13.05;;;17.00;99.90;;;;;;5006877;28;20050;-71
2022/07/22 04:54:49;;;;;;;13.40;12.00;;;17.00;99.90;;;;;;5023777;28;20038;-73
2022/07/22 04:57:21;;;;;;;13.48;11.93;;;17.10;99.90;;;;;;5028980;28;20091;-72
2022/07/22 04:59:57;;;;;;;16.45;12.55;;;17.10;99.90;;;;;;5009435;28;20124;-72
2022/07/22 05:02:32;;;;;;;17.98;14.23;;;17.20;99.90;;;;;;5018012;28;20692;-72
2022/07/22 05:05:04;;;;;;;22.88;14.75;;;17.30;99.90;;;;;;5016098;28;20104;-72
2022/07/22 05:07:36;;;;;;;20.20;13.33;;;17.30;99.90;;;;;;5024075;28;20070;-72
2022/07/22 05:10:09;;;;;;;17.40;13.88;;;17.30;99.90;;;;;;5008388;28;20050;-72
2022/07/22 05:12:41;;;;;;;19.50;13.75;;;17.40;99.90;;;;;;5013462;28;20068;-72
2022/07/22 05:15:12;;;;;;;15.82;14.23;;;17.40;99.90;;;;;;5021572;28;20052;-72
2022/07/22 05:17:44;;;;;;;15.80;14.30;;;17.50;99.90;;;;;;5016743;28;20052;-72
2022/07/22 05:20:23;;;;;;;24.20;15.65;;;17.50;99.90;;;;;;5011295;28;20702;-72
2022/07/22 05:22:54;;;;;;;20.58;15.13;;;17.60;99.90;;;;;;5008995;28;20129;-71
2022/07/22 05:25:29;;;;;;;19.75;15.02;;;17.60;99.90;;;;;;5025696;28;20144;-71
2022/07/22 05:28:01;;;;;;;18.90;14.63;;;17.70;99.90;;;;;;5006566;28;20762;-71
2022/07/22 05:30:36;;;;;;;19.75;15.75;;;17.80;99.90;;;;;;5008216;28;20057;-71
2022/07/22 05:33:04;;;;;;;19.25;15.30;;;18.00;99.90;;;;;;5013346;28;20049;-71
2022/07/22 05:35:56;;;;;;;24.23;17.13;;;18.10;99.90;;;;;;4980359;28;20445;-71
2022/07/22 05:38:36;;;;;;;23.17;16.52;;;18.30;99.90;;;;;;5013701;28;20069;-71
2022/07/22 05:41:09;;;;;;;24.85;17.00;;;18.30;99.90;;;;;;4994148;28;20045;-71
2022/07/22 05:43:40;;;;;;;24.83;18.20;;;18.50;99.90;;;;;;5001769;28;20048;-71
2022/07/22 05:46:08;;;;;;;24.67;18.10;;;18.50;99.90;;;;;;4995218;28;20103;-71
2022/07/22 05:48:41;;;;;;;24.90;18.55;;;18.60;99.90;;;;;;5025227;28;20121;-71
2022/07/22 05:51:12;;;;;;;21.50;17.85;;;18.60;99.90;;;;;;5009715;28;20454;-71
2022/07/22 05:53:44;;;;;;;19.55;16.08;;;18.60;99.90;;;;;;5013290;28;20069;-71
2022/07/22 05:56:16;;;;;;;22.98;16.33;;;18.60;99.90;;;;;;5008416;28;20038;-71
2022/07/22 05:58:48;;;;;;;18.92;14.48;;;18.70;99.90;;;;;;5022435;28;20033;-71
2022/07/22 06:01:20;;;;;;;20.38;16.20;;;18.70;99.90;;;;;;5022649;28;20510;-71
2022/07/22 06:03:54;;;;;;;17.05;15.25;;;18.70;99.90;;;;;;5017548;28;20038;-71
2022/07/22 06:06:26;;;;;;;16.92;15.18;;;18.80;99.90;;;;;;5004536;28;20124;-71
2022/07/22 06:08:58;;;;;;;37.92;34.35;;;18.80;99.90;;;;;;5022816;28;20533;-71
2022/07/22 06:11:30;;;;;;;26.73;23.90;;;18.80;99.90;;;;;;5008663;28;20037;-71
2022/07/22 06:14:01;;;;;;;25.30;21.20;;;18.90;99.90;;;;;;5008406;28;20091;-71
2022/07/22 06:16:34;;;;;;;20.20;18.10;;;19.00;99.90;;;;;;5006798;28;20045;-71
2022/07/22 06:19:02;;;;;;;19.73;17.73;;;19.00;99.90;;;;;;5000227;28;20092;-71
2022/07/22 06:21:34;;;;;;;20.48;18.33;;;18.90;99.90;;;;;;5021361;28;20056;-71
2022/07/22 06:24:08;;;;;;;19.58;17.60;;;18.90;99.90;;;;;;5021294;28;20053;-71
2022/07/22 06:26:40;;;;;;;20.50;18.38;;;18.90;99.90;;;;;;5022024;28;20115;-71
2022/07/22 06:29:13;;;;;;;23.15;18.27;;;19.00;99.90;;;;;;5005898;28;21499;-71
2022/07/22 06:31:44;;;;;;;18.20;16.38;;;19.10;99.90;;;;;;5007211;28;20045;-71
2022/07/22 06:34:16;;;;;;;20.65;18.50;;;19.20;99.90;;;;;;5021195;28;20122;-71
2022/07/22 06:37:04;;;;;;;20.75;18.30;;;19.30;99.90;;;;;;5019436;28;20045;-71
2022/07/22 06:39:36;;;;;;;22.90;20.60;;;19.30;99.90;;;;;;5015241;28;20042;-71
2022/07/22 06:42:17;;;;;;;23.52;19.77;;;19.40;99.90;;;;;;5027324;28;20045;-71
2022/07/22 06:45:24;;;;;;;19.85;17.77;;;19.40;99.90;;;;;;5008779;28;20061;-71
2022/07/22 06:48:05;;;;;;;24.27;19.55;;;19.50;99.90;;;;;;5004435;28;20068;-71
2022/07/22 06:50:37;;;;;;;25.23;21.00;;;19.70;99.90;;;;;;5017699;28;20477;-71
2022/07/22 06:53:14;;;;;;;23.17;20.83;;;19.70;99.90;;;;;;5005389;28;20296;-71
2022/07/22 06:55:47;;;;;;;21.20;18.92;;;19.80;99.90;;;;;;5006956;28;20172;-71
2022/07/22 06:58:19;;;;;;;23.63;21.25;;;19.80;99.90;;;;;;4994041;28;20053;-71
2022/07/22 07:00:51;;;;;;;24.77;21.47;;;20.00;99.90;;;;;;5020144;28;20046;-71
2022/07/22 07:03:30;;;;;;;23.15;20.70;;;20.00;99.90;;;;;;5011966;28;20321;-71
2022/07/22 07:06:11;;;;;;;23.48;21.17;;;20.10;99.90;;;;;;5017685;28;20041;-71
2022/07/22 07:08:57;;;;;;;20.70;18.50;;;20.20;99.90;;;;;;5023128;28;20041;-71
2022/07/22 07:11:24;;;;;;;21.77;18.75;;;20.30;99.90;;;;;;4997827;28;20042;-71
2022/07/22 07:13:57;;;;;;;21.95;19.63;;;20.40;99.90;;;;;;5004814;28;20052;-71
2022/07/22 07:16:29;;;;;;;21.45;18.80;;;20.50;99.90;;;;;;5004083;28;20030;-71
2022/07/22 07:19:01;;;;;;;18.52;16.33;;;20.60;99.90;;;;;;5001908;28;20030;-71
2022/07/22 07:21:33;;;;;;;21.48;18.13;;;20.70;99.90;;;;;;5020766;28;20046;-71
2022/07/22 07:24:01;;;;;;;19.73;17.70;;;20.80;99.90;;;;;;4999438;28;20040;-71
2022/07/22 07:26:33;;;;;;;20.90;18.75;;;21.00;99.90;;;;;;5005441;28;20137;-71
2022/07/22 07:29:04;;;;;;;19.25;17.23;;;21.10;99.90;;;;;;5010213;28;20076;-71
2022/07/22 07:31:33;;;;;;;16.67;14.85;;;21.30;99.90;;;;;;5011228;28;20321;-71
2022/07/22 07:34:11;;;;;;;17.95;15.82;;;21.40;99.90;;;;;;5007507;28;20046;-71
2022/07/22 07:36:43;;;;;;;17.00;14.55;;;21.60;99.90;;;;;;4998806;28;20044;-71
2022/07/22 07:39:15;;;;;;;16.70;15.07;;;21.70;99.90;;;;;;5022515;28;20104;-71
2022/07/22 07:41:47;;;;;;;16.40;14.88;;;21.80;99.90;;;;;;4997834;28;20034;-71
2022/07/22 07:44:19;;;;;;;17.87;15.03;;;22.00;99.90;;;;;;5008512;28;20046;-71
2022/07/22 07:46:51;;;;;;;17.42;15.02;;;22.10;99.90;;;;;;4993149;28;20156;-71
2022/07/22 07:49:24;;;;;;;14.85;13.27;;;22.20;99.90;;;;;;5004789;28;20061;-71
2022/07/22 07:51:57;;;;;;;13.88;12.48;;;22.30;99.90;;;;;;5006162;28;20091;-71
2022/07/22 07:54:29;;;;;;;12.57;11.38;;;22.50;99.90;;;;;;5003591;28;20039;-71
2022/07/22 07:57:01;;;;;;;15.43;12.05;;;22.60;99.90;;;;;;5003625;28;20399;-71
2022/07/22 07:59:33;;;;;;;12.93;11.63;;;22.80;99.90;;;;;;5006211;28;20057;-71
2022/07/22 08:02:06;;;;;;;13.77;12.40;;;22.90;99.90;;;;;;5006010;28;20141;-71
2022/07/22 08:04:38;;;;;;;13.60;11.25;;;23.00;99.90;;;;;;5003268;28;20517;-71
2022/07/22 08:07:16;;;;;;;13.73;12.43;;;23.20;99.90;;;;;;5004535;28;20089;-71
2022/07/22 08:09:49;;;;;;;14.57;11.50;;;23.30;99.90;;;;;;5007316;28;20038;-71
2022/07/22 08:12:48;;;;;;;15.85;14.25;;;23.50;99.90;;;;;;5006474;28;20058;-71
2022/07/22 08:15:38;;;;;;;15.45;13.27;;;23.60;99.90;;;;;;5020969;28;20050;-71
2022/07/22 08:18:16;;;;;;;15.80;14.13;;;23.70;99.90;;;;;;5021893;28;20593;-71
2022/07/22 08:20:44;;;;;;;14.38;12.95;;;23.80;99.90;;;;;;4998212;28;20108;-71
2022/07/22 08:23:18;;;;;;;14.35;12.15;;;24.00;99.90;;;;;;5004874;28;20046;-71
2022/07/22 08:25:51;;;;;;;14.52;11.38;;;24.10;99.90;;;;;;4992954;28;20490;-71
2022/07/22 08:28:23;;;;;;;14.30;13.00;;;24.10;99.90;;;;;;5011634;28;20068;-71
2022/07/22 08:30:55;;;;;;;12.57;11.38;;;24.30;99.90;;;;;;5006034;28;20510;-72
2022/07/22 08:33:26;;;;;;;13.05;11.85;;;24.40;99.90;;;;;;5009191;28;20060;-71
2022/07/22 08:35:58;;;;;;;12.80;11.60;;;24.50;99.90;;;;;;5014467;28;20066;-71
2022/07/22 08:38:31;;;;;;;14.65;12.60;;;24.70;99.90;;;;;;5010633;28;20143;-71
2022/07/22 08:41:04;;;;;;;13.17;11.90;;;24.80;99.90;;;;;;5025555;28;20053;-71
2022/07/22 08:43:41;;;;;;;13.52;12.13;;;24.90;99.90;;;;;;5025957;28;20050;-71
2022/07/22 08:46:13;;;;;;;12.45;11.30;;;25.10;99.90;;;;;;5026000;28;20136;-71
2022/07/22 08:49:07;;;;;;;14.98;13.32;;;25.20;99.90;;;;;;5008721;28;20045;-70
2022/07/22 08:51:58;;;;;;;13.85;12.45;;;25.30;99.90;;;;;;5013000;28;20098;-70
2022/07/22 08:54:36;;;;;;;15.15;13.55;;;25.40;99.90;;;;;;5010157;28;20100;-70
2022/07/22 08:57:09;;;;;;;17.80;13.38;;;25.40;99.90;;;;;;5027967;28;20053;-70
2022/07/22 08:59:58;;;;;;;14.52;12.63;;;25.40;99.90;;;;;;5010579;28;20509;-71
2022/07/22 09:02:26;;;;;;;11.48;10.27;;;25.40;99.90;;;;;;5025638;28;20070;-71
2022/07/22 09:04:59;;;;;;;;;;;25.50;99.90;;;;;;5010265;28;20042;-70
2022/07/22 09:07:35;;;;;;;11.23;10.05;;;25.60;99.90;;;;;;5020052;28;19931;-70
2022/07/22 09:10:16;;;;;;;11.93;10.57;;;25.70;99.90;;;;;;5009273;28;20446;-71
2022/07/22 09:13:07;;;;;;;12.17;10.93;;;25.90;99.90;;;;;;5009167;28;20516;-72
2022/07/22 09:15:54;;;;;;;13.68;12.02;;;26.10;99.90;;;;;;5007306;28;20042;-72
2022/07/22 09:18:49;;;;;;;12.55;11.35;;;26.20;99.90;;;;;;5007106;28;20537;-72
2022/07/22 09:21:29;;;;;;;13.43;12.18;;;26.20;99.90;;;;;;5004198;28;20417;-72
2022/07/22 09:24:34;;;;;;;12.90;11.68;;;26.30;99.90;;;;;;5002841;28;20065;-72
2022/07/22 09:27:26;;;;;;;11.30;10.20;;;26.40;99.90;;;;;;5004176;28;20056;-72
2022/07/22 09:30:24;;;;;;;12.88;11.57;;;26.50;99.90;;;;;;5011352;28;20461;-72
2022/07/22 09:33:03;;;;;;;12.45;11.20;;;26.60;99.90;;;;;;5005104;28;20038;-72
2022/07/22 09:35:40;;;;;;;11.60;10.60;;;26.70;99.90;;;;;;5006032;28;20530;-72
2022/07/22 09:38:13;;;;;;;11.43;10.35;;;26.90;99.90;;;;;;5006501;28;20070;-72
2022/07/22 09:40:47;;;;;;;11.60;10.60;;;27.00;99.90;;;;;;5003595;28;20466;-72
2022/07/22 09:43:20;;;;;;;11.73;10.50;;;27.10;99.90;;;;;;5024161;28;20046;-73
2022/07/22 09:45:59;;;;;;;11.90;10.80;;;27.20;99.90;;;;;;5009816;28;20042;-72
2022/07/22 09:48:51;;;;;;;17.10;10.57;;;27.10;99.90;;;;;;5011835;28;20061;-72
2022/07/22 09:51:34;;;;;;;14.02;11.38;;;27.10;99.90;;;;;;5024612;28;20136;-72
2022/07/22 09:54:26;;;;;;;11.38;10.38;;;27.20;99.90;;;;;;5010464;28;20123;-72
2022/07/22 09:56:59;;;;;;;11.10;10.02;;;27.30;99.90;;;;;;5001325;28;20082;-72
2022/07/22 09:59:30;;;;;;;9.77;8.88;;;27.40;99.90;;;;;;5007990;28;20076;-72
2022/07/22 10:02:19;;;;;;;9.60;8.70;;;27.60;99.90;;;;;;5008291;28;20042;-72
2022/07/22 10:04:52;;;;;;;10.52;9.60;;;27.70;99.90;;;;;;5010283;28;20066;-72
2022/07/22 10:07:26;;;;;;;9.68;8.77;;;27.80;99.90;;;;;;5008808;28;20450;-72
2022/07/22 10:09:59;;;;;;;12.27;10.27;;;27.90;99.90;;;;;;5004899;28;20422;-72
2022/07/22 10:12:31;;;;;;;14.20;10.48;;;28.10;99.90;;;;;;4999926;28;20043;-72
2022/07/22 10:15:03;;;;;;;11.10;10.00;;;28.00;99.50;;;;;;5009002;28;20061;-72
2022/07/22 10:17:37;;;;;;;11.85;10.75;;;28.00;99.90;;;;;;5005235;28;20374;-72
2022/07/22 10:20:11;;;;;;;10.98;9.30;;;28.20;99.90;;;;;;5010843;28;20046;-72
2022/07/22 10:22:49;;;;;;;10.73;9.73;;;28.30;99.50;;;;;;4996060;28;20045;-72
2022/07/22 10:25:24;;;;;;;10.07;9.18;;;28.50;99.50;;;;;;4990947;28;20820;-72
2022/07/22 10:28:07;;;;;;;10.43;9.38;;;28.60;97.60;;;;;;5007423;28;20049;-72
2022/07/22 10:30:40;;;;;;;;;;;28.70;97.90;;;;;;5021351;28;20137;-72
2022/07/22 10:33:18;;;;;;;9.77;8.77;;;28.90;97.10;;;;;;5009346;28;20023;-73
2022/07/22 10:35:57;;;;;;;10.98;8.85;;;28.90;97.00;;;;;;5002637;28;20050;-72
2022/07/22 10:38:31;;;;;;;10.23;8.93;;;29.00;96.40;;;;;;5006912;28;20486;-72
2022/07/22 10:41:05;;;;;;;10.82;8.93;;;29.10;95.40;;;;;;5020365;28;20053;-72
2022/07/22 10:43:47;;;;;;;9.82;8.82;;;29.20;95.40;;;;;;5008127;28;20504;-72
2022/07/22 10:46:52;;;;;;;9.68;8.70;;;29.20;95.30;;;;;;5005713;28;20033;-72
2022/07/22 10:49:25;;;;;;;9.90;9.00;;;29.30;94.80;;;;;;5023645;28;20433;-72
2022/07/22 10:52:11;;;;;;;10.52;9.43;;;29.30;94.60;;;;;;5009837;28;20536;-72
2022/07/22 10:55:22;;;;;;;9.98;8.40;;;29.40;94.60;;;;;;5007157;28;20096;-72
2022/07/22 10:57:53;;;;;;;12.27;9.00;;;29.50;93.40;;;;;;5003501;28;20045;-72
2022/07/22 11:00:25;;;;;;;9.80;8.85;;;29.60;93.30;;;;;;5017364;28;20827;-72
2022/07/22 11:02:57;;;;;;;11.13;9.02;;;29.60;93.30;;;;;;5023599;28;20417;-72
2022/07/22 11:05:30;;;;;;;10.88;9.80;;;29.70;93.40;;;;;;5006781;28;20044;-72
2022/07/22 11:08:08;;;;;;;;;;;29.70;93.00;;;;;;5008254;28;20145;-72
2022/07/22 11:10:49;;;;;;;9.05;8.20;;;29.70;92.30;;;;;;5025510;28;20496;-71
2022/07/22 11:13:31;;;;;;;12.25;8.57;;;29.90;92.70;;;;;;5021931;28;20050;-72
2022/07/22 11:16:21;;;;;;;9.65;8.82;;;30.00;91.50;;;;;;5023282;28;20061;-72
2022/07/22 11:18:59;;;;;;;10.73;9.82;;;30.10;91.20;;;;;;5008914;28;20061;-71
2022/07/22 11:21:33;;;;;;;9.77;8.88;;;30.20;90.90;;;;;;4997067;28;20047;-71
2022/07/22 11:24:03;;;;;;;9.93;8.88;;;30.30;91.40;;;;;;5005496;28;20070;-71
2022/07/22 11:26:45;;;;;;;9.27;8.48;;;30.40;90.60;;;;;;5011332;28;20048;-71
2022/07/22 11:29:33;;;;;;;10.88;9.10;;;30.50;90.70;;;;;;5025255;28;20046;-71
2022/07/22 11:32:07;;;;;;;8.95;8.13;;;30.60;88.50;;;;;;4998827;28;20054;-71
2022/07/22 11:34:44;;;;;;;9.65;7.93;;;30.70;87.60;;;;;;5005541;28;20145;-71
2022/07/22 11:37:18;;;;;;;10.45;9.40;;;30.90;89.20;;;;;;4989730;28;20057;-72
2022/07/22 11:39:51;;;;;;;9.77;8.88;;;30.90;87.70;;;;;;5001971;28;20451;-72
2022/07/22 11:42:25;;;;;;;13.48;7.78;;;31.00;86.30;;;;;;5007706;28;20494;-71
2022/07/22 11:44:58;;;;;;;9.38;8.48;;;31.10;84.30;;;;;;5006427;28;20528;-73
2022/07/22 11:47:30;;;;;;;9.15;8.30;;;31.20;81.60;;;;;;4984521;28;20037;-71
2022/07/22 11:50:02;;;;;;;9.15;8.00;;;31.30;80.30;;;;;;5024602;28;20052;-71
2022/07/22 11:52:33;;;;;;;9.35;8.10;;;31.40;81.10;;;;;;5009616;28;20046;-72
2022/07/22 11:55:15;;;;;;;9.15;8.02;;;31.50;78.90;;;;;;5003872;28;20056;-71
2022/07/22 11:57:48;;;;;;;8.15;6.93;;;31.50;76.00;;;;;;5005946;28;20069;-71
2022/07/22 12:00:21;;;;;;;8.73;7.78;;;31.40;74.50;;;;;;5006277;28;20049;-72
2022/07/22 12:02:53;;;;;;;8.48;7.68;;;31.50;77.40;;;;;;5004854;28;20037;-71
2022/07/22 12:05:25;;;;;;;9.30;8.07;;;31.60;77.90;;;;;;5005966;28;20046;-72
2022/07/22 12:07:57;;;;;;;7.67;6.97;;;31.70;74.60;;;;;;5021337;28;20360;-72
2022/07/22 12:10:29;;;;;;;8.70;7.68;;;31.90;74.10;;;;;;5021369;28;20052;-71
2022/07/22 12:13:00;;;;;;;15.20;7.43;;;32.00;73.80;;;;;;5007095;28;20057;-72
2022/07/22 12:15:32;;;;;;;8.67;7.50;;;32.10;73.30;;;;;;5005750;28;20037;-72
2022/07/22 12:18:23;;;;;;;9.27;8.00;;;32.20;71.60;;;;;;5024683;28;20052;-72
2022/07/22 12:20:55;;;;;;;8.90;8.02;;;32.30;69.40;;;;;;5008960;28;20200;-71
2022/07/22 12:23:27;;;;;;;7.97;7.00;;;32.30;69.90;;;;;;5006414;28;20046;-72
2022/07/22 12:26:01;;;;;;;8.00;7.20;;;32.30;69.00;;;;;;5007411;28;20046;-71
2022/07/22 12:28:33;;;;;;;7.60;7.00;;;32.30;69.80;;;;;;5008162;28;20406;-71
2022/07/22 12:31:04;;;;;;;7.67;6.97;;;32.40;67.70;;;;;;5002688;28;20046;-72
2022/07/22 12:33:36;;;;;;;8.00;7.23;;;32.50;67.00;;;;;;5003763;28;20830;-72
2022/07/22 12:36:08;;;;;;;7.75;7.15;;;32.50;66.80;;;;;;4993313;28;20066;-71
2022/07/22 12:38:40;;;;;;;6.80;6.25;;;32.70;65.00;;;;;;5002800;28;20406;-71
2022/07/22 12:41:31;;;;;;;7.78;6.90;;;32.80;63.20;;;;;;5024969;28;20073;-72
2022/07/22 12:44:03;;;;;;;13.88;7.95;;;32.90;62.30;;;;;;5012151;23;20062;-72
2022/07/22 12:46:45;;;;;;;9.30;6.53;;;33.00;61.40;;;;;;4964253;28;20397;-72
2022/07/22 12:49:19;;;;;;;7.22;6.63;;;33.10;63.50;;;;;;4992447;28;20575;-72
2022/07/22 12:52:08;;;;;;;7.53;6.65;;;33.10;62.20;;;;;;5000583;28;20053;-72
2022/07/22 12:54:41;;;;;;;7.03;6.43;;;33.30;58.30;;;;;;5001176;28;20035;-72
2022/07/22 12:57:12;;;;;;;7.05;6.45;;;33.30;58.90;;;;;;5018664;28;20050;-72
2022/07/22 12:59:52;;;;;;;8.07;7.40;;;33.40;57.00;;;;;;5010145;28;20038;-72
2022/07/22 13:02:23;;;;;;;7.75;7.05;;;33.40;58.70;;;;;;5009369;28;20038;-72
2022/07/22 13:04:50;;;;;;;10.52;7.40;;;33.40;60.00;;;;;;5007421;28;20041;-72
2022/07/22 13:07:22;;;;;;;9.70;8.13;;;33.20;61.30;;;;;;5019030;28;20042;-72
2022/07/22 13:09:53;;;;;;;8.93;8.03;;;33.10;61.40;;;;;;5023044;28;20057;-72